Johnstown, PA

02:53 PM EST del 22 Dicembre 2014 (GMT -0500)
Johnstown-Cambria County | Change Station
CLOSE
Current Station
Aeroporto
Location: Johnstown,
Altitudine: 2283 ft
Stazioni meteo nelle vicinanze
Avvisi attivi: Freezing Rain Advisory

Alt. 2283 ft 40.32 °N, 78.83 °W | Updated 4 minutes ago

Coperto
Coperto
30 °F
Sembra 25 °F
N
5
Vento Variabile Vento da SE

Oggi
Massima -- | Minima -- °F
--% Possibilità di precip.
Ieri
Massima -- | Minima -- °F
Precip. -- in
7:35 AM 4:53 PM
Luna nuova, 1% visible
Pressione 30.03 in
Visibilità 6.0 miglia
Nuvole Nubi sparse 900 ft
Coperto 7000 ft
Raffreddamento del vento 25 °F
Punto di rugiada 23 °F
Umidità 75%
Piovosità 0.00 in
Spessore del manto nevoso Non disponibile.
Raggi UV 0 fuori da 12
Polline .10 fuori da 12
Qualità dell'aria Non disponibile.
Flu Activity Non disponibile.
SPECI KJST 221949Z AUTO 14004KT 6SM HZ SCT009 OVC070 M01/M05 A3003 RMK AO2

More Conditions Fewer Conditions

Pressione 30.03 in
Visibilità 6.0 miglia
Nuvole Nubi sparse 900 ft
Coperto 7000 ft
Raffreddamento del vento 25 °F
Punto di rugiada 23 °F
Umidità 75%
Piovosità 0.00 in
Spessore del manto nevoso Non disponibile.
Raggi UV 0 fuori da 12
Polline .10 fuori da 12
Qualità dell'aria Non disponibile.
Flu Activity Non disponibile.
SPECI KJST 221949Z AUTO 14004KT 6SM HZ SCT009 OVC070 M01/M05 A3003 RMK AO2

More Conditions Fewer Conditions

Nowcast | as of 2:27 PM EST on December 22, 2014

A few pockets of light rain and freezing rain will be across south central Pennsylvania through sunset. Some icy spots could form... especially on untreated ramps and bridges. Persons traveling this afternoon should be alert for a wide range of conditions and use caution. Most of the precipitation will be south of an Ebensburg... Lewistown line through 430 PM. The patches of rain are moving northeast at 30 mph.

×

10-Day Weather Forecast

Almanac

Astronomia

Dec. 22, 2014 Alba Tramonto
Ora attuale
Crepuscolo civile
Crepuscolo nautico
Crepuscolo astronomico
Luna
Estensione della luce visibile
Lunghezza del giorno
Tomorrow will be .
, % of the Moon is Illuminated

Gli estremi di oggi

State Highs State Lows

Community

WunderPhotos

Upload Photos

1,779,699 foto caricate!

WunderBlogs® & News

Nearby

Qualità dell'aria

  Qualità dell'aria Indice AQ Inquinante
Not available.

Profondità neve

Stazione Profondità Altitudine

Attività sismica

Città  Distanza Mag. Data & Ora
Minimo Magnitudo Mostrato è 2.5.

Temperature delle acque costiere

Località Temperatura

Stazioni meteo nelle vicinanze